sensor_id;sensor_type;location;lat;lon;timestamp;pressure;altitude;pressure_sealevel;temperature;humidity
30021;BME280;16861;52.294;7.760;2023-01-27T00:00:12;100615.38;;;5.72;75.47
30021;BME280;16861;52.294;7.760;2023-01-27T00:02:40;100617.13;;;5.70;75.33
30021;BME280;16861;52.294;7.760;2023-01-27T00:05:08;100620.66;;;5.69;75.66
30021;BME280;16861;52.294;7.760;2023-01-27T00:07:35;100610.19;;;5.69;75.91
30021;BME280;16861;52.294;7.760;2023-01-27T00:10:02;100613.72;;;5.68;75.74
30021;BME280;16861;52.294;7.760;2023-01-27T00:12:28;100611.09;;;5.68;75.68
30021;BME280;16861;52.294;7.760;2023-01-27T00:15:14;100612.81;;;5.69;75.75
30021;BME280;16861;52.294;7.760;2023-01-27T00:17:41;100608.44;;;5.69;75.73
30021;BME280;16861;52.294;7.760;2023-01-27T00:20:08;100615.41;;;5.69;75.85
30021;BME280;16861;52.294;7.760;2023-01-27T00:22:35;100616.31;;;5.68;75.92
30021;BME280;16861;52.294;7.760;2023-01-27T00:25:21;100616.34;;;5.66;75.64
30021;BME280;16861;52.294;7.760;2023-01-27T00:27:47;100615.44;;;5.67;76.14
30021;BME280;16861;52.294;7.760;2023-01-27T00:30:14;100614.56;;;5.67;75.91
30021;BME280;16861;52.294;7.760;2023-01-27T00:32:40;100615.44;;;5.67;75.99
30021;BME280;16861;52.294;7.760;2023-01-27T00:35:25;100618.06;;;5.67;76.00
30021;BME280;16861;52.294;7.760;2023-01-27T00:37:51;100610.19;;;5.69;76.34
30021;BME280;16861;52.294;7.760;2023-01-27T00:40:18;100619.75;;;5.70;76.31
30021;BME280;16861;52.294;7.760;2023-01-27T00:42:45;100614.53;;;5.70;76.29
30021;BME280;16861;52.294;7.760;2023-01-27T00:45:11;100615.38;;;5.72;76.25
30021;BME280;16861;52.294;7.760;2023-01-27T00:47:56;100624.91;;;5.73;76.14
30021;BME280;16861;52.294;7.760;2023-01-27T00:50:22;100619.66;;;5.74;76.08
30021;BME280;16861;52.294;7.760;2023-01-27T00:52:49;100618.75;;;5.76;76.00
30021;BME280;16861;52.294;7.760;2023-01-27T00:55:16;100617.03;;;5.74;76.15
30021;BME280;16861;52.294;7.760;2023-01-27T00:57:43;100623.97;;;5.76;76.33
30021;BME280;16861;52.294;7.760;2023-01-27T01:00:10;100623.06;;;5.77;76.24
30021;BME280;16861;52.294;7.760;2023-01-27T01:02:37;100623.94;;;5.77;76.08
30021;BME280;16861;52.294;7.760;2023-01-27T01:05:04;100629.16;;;5.77;76.17
30021;BME280;16861;52.294;7.760;2023-01-27T01:07:30;100613.53;;;5.76;75.85
30021;BME280;16861;52.294;7.760;2023-01-27T01:09:56;100620.47;;;5.77;76.20
30021;BME280;16861;52.294;7.760;2023-01-27T01:12:23;100615.28;;;5.75;75.97
30021;BME280;16861;52.294;7.760;2023-01-27T01:14:49;100617.91;;;5.73;75.89
30021;BME280;16861;52.294;7.760;2023-01-27T01:17:15;100620.59;;;5.72;76.12
30021;BME280;16861;52.294;7.760;2023-01-27T01:19:42;100618.84;;;5.71;75.98
30021;BME280;16861;52.294;7.760;2023-01-27T01:22:08;100626.72;;;5.69;75.88
30021;BME280;16861;52.294;7.760;2023-01-27T01:24:35;100628.47;;;5.69;76.35
30021;BME280;16861;52.294;7.760;2023-01-27T01:27:01;100631.09;;;5.69;76.27
30021;BME280;16861;52.294;7.760;2023-01-27T01:29:27;100632.00;;;5.68;76.11
30021;BME280;16861;52.294;7.760;2023-01-27T01:31:54;100636.34;;;5.67;76.43
30021;BME280;16861;52.294;7.760;2023-01-27T01:34:20;100626.81;;;5.66;76.28
30021;BME280;16861;52.294;7.760;2023-01-27T01:36:47;100635.47;;;5.67;76.54
30021;BME280;16861;52.294;7.760;2023-01-27T01:39:13;100632.00;;;5.68;76.42
30021;BME280;16861;52.294;7.760;2023-01-27T01:41:39;100632.00;;;5.68;76.35
30021;BME280;16861;52.294;7.760;2023-01-27T01:44:29;100635.56;;;5.64;75.57
30021;BME280;16861;52.294;7.760;2023-01-27T01:46:56;100640.66;;;5.68;76.41
30021;BME280;16861;52.294;7.760;2023-01-27T01:49:28;100636.34;;;5.67;76.09
30021;BME280;16861;52.294;7.760;2023-01-27T01:52:00;100631.13;;;5.67;76.16
30021;BME280;16861;52.294;7.760;2023-01-27T01:54:34;100637.22;;;5.68;75.91
30021;BME280;16861;52.294;7.760;2023-01-27T01:57:07;100637.22;;;5.68;76.33
30021;BME280;16861;52.294;7.760;2023-01-27T02:00:05;100635.56;;;5.64;75.65
30021;BME280;16861;52.294;7.760;2023-01-27T02:02:33;100645.06;;;5.68;76.40
30021;BME280;16861;52.294;7.760;2023-01-27T02:05:12;100645.13;;;5.65;75.97
30021;BME280;16861;52.294;7.760;2023-01-27T02:10:28;100633.75;;;5.66;76.44
30021;BME280;16861;52.294;7.760;2023-01-27T02:12:54;100634.66;;;5.65;76.66
30021;BME280;16861;52.294;7.760;2023-01-27T02:15:21;100641.59;;;5.66;76.61
30021;BME280;16861;52.294;7.760;2023-01-27T02:17:48;100643.38;;;5.65;76.43
30021;BME280;16861;52.294;7.760;2023-01-27T02:20:23;100639.91;;;5.63;76.34
30021;BME280;16861;52.294;7.760;2023-01-27T02:23:28;100639.06;;;5.63;76.19
30021;BME280;16861;52.294;7.760;2023-01-27T02:26:09;100631.16;;;5.66;76.57
30021;BME280;16861;52.294;7.760;2023-01-27T02:28:38;100640.69;;;5.67;76.63
30021;BME280;16861;52.294;7.760;2023-01-27T02:31:05;100640.69;;;5.67;76.73
30021;BME280;16861;52.294;7.760;2023-01-27T02:33:31;100634.59;;;5.68;76.68
30021;BME280;16861;52.294;7.760;2023-01-27T02:38:37;100629.41;;;5.66;76.29
30021;BME280;16861;52.294;7.760;2023-01-27T02:41:18;100634.66;;;5.65;76.11
30021;BME280;16861;52.294;7.760;2023-01-27T02:43:47;100634.53;;;5.69;76.73
30021;BME280;16861;52.294;7.760;2023-01-27T02:46:15;100638.06;;;5.68;76.88
30021;BME280;16861;52.294;7.760;2023-01-27T02:48:41;100638.06;;;5.68;76.97
30021;BME280;16861;52.294;7.760;2023-01-27T02:51:08;100636.31;;;5.69;76.60
30021;BME280;16861;52.294;7.760;2023-01-27T02:53:34;100633.72;;;5.69;76.67
30021;BME280;16861;52.294;7.760;2023-01-27T02:56:01;100637.16;;;5.69;76.92
30021;BME280;16861;52.294;7.760;2023-01-27T02:58:27;100638.03;;;5.70;76.79
30021;BME280;16861;52.294;7.760;2023-01-27T03:00:54;100636.28;;;5.70;76.68
30021;BME280;16861;52.294;7.760;2023-01-27T03:03:20;100640.66;;;5.70;76.54
30021;BME280;16861;52.294;7.760;2023-01-27T03:05:46;100642.34;;;5.71;76.68
30021;BME280;16861;52.294;7.760;2023-01-27T03:08:17;100638.94;;;5.69;76.55
30021;BME280;16861;52.294;7.760;2023-01-27T03:10:43;100641.53;;;5.69;76.73
30021;BME280;16861;52.294;7.760;2023-01-27T03:13:10;100632.84;;;5.68;76.77
30021;BME280;16861;52.294;7.760;2023-01-27T03:15:37;100645.06;;;5.68;76.37
30021;BME280;16861;52.294;7.760;2023-01-27T03:18:22;100639.84;;;5.68;76.42
30021;BME280;16861;52.294;7.760;2023-01-27T03:20:48;100646.81;;;5.66;76.23
30021;BME280;16861;52.294;7.760;2023-01-27T03:23:16;100646.03;;;5.64;76.24
30021;BME280;16861;52.294;7.760;2023-01-27T03:25:47;100640.78;;;5.64;76.75
30021;BME280;16861;52.294;7.760;2023-01-27T03:28:13;100650.38;;;5.63;76.98
30021;BME280;16861;52.294;7.760;2023-01-27T03:30:40;100644.28;;;5.63;76.64
30021;BME280;16861;52.294;7.760;2023-01-27T03:33:07;100647.78;;;5.61;76.69
30021;BME280;16861;52.294;7.760;2023-01-27T03:35:35;100645.19;;;5.61;76.79
30021;BME280;16861;52.294;7.760;2023-01-27T03:38:09;100650.44;;;5.60;76.38
30021;BME280;16861;52.294;7.760;2023-01-27T03:40:56;100654.72;;;5.63;76.76
30021;BME280;16861;52.294;7.760;2023-01-27T03:43:41;100650.38;;;5.63;76.86
30021;BME280;16861;52.294;7.760;2023-01-27T03:46:26;100650.38;;;5.63;77.13
30021;BME280;16861;52.294;7.760;2023-01-27T03:48:54;100653.88;;;5.62;76.95
30021;BME280;16861;52.294;7.760;2023-01-27T03:51:22;100661.72;;;5.62;76.65
30021;BME280;16861;52.294;7.760;2023-01-27T03:53:49;100660.78;;;5.65;76.70
30021;BME280;16861;52.294;7.760;2023-01-27T03:56:17;100660.78;;;5.65;76.83
30021;BME280;16861;52.294;7.760;2023-01-27T03:58:44;100668.63;;;5.65;77.10
30021;BME280;16861;52.294;7.760;2023-01-27T04:01:17;100652.09;;;5.63;76.54
30021;BME280;16861;52.294;7.760;2023-01-27T04:03:44;100659.88;;;5.66;77.12
30021;BME280;16861;52.294;7.760;2023-01-27T04:06:32;100659.00;;;5.67;76.99
30021;BME280;16861;52.294;7.760;2023-01-27T04:09:34;100659.06;;;5.64;76.34
30021;BME280;16861;52.294;7.760;2023-01-27T04:12:03;100665.97;;;5.66;76.83
30021;BME280;16861;52.294;7.760;2023-01-27T04:14:35;100661.66;;;5.65;76.48
30021;BME280;16861;52.294;7.760;2023-01-27T04:17:17;100674.72;;;5.65;76.37
30021;BME280;16861;52.294;7.760;2023-01-27T04:19:45;100668.56;;;5.68;76.54
30021;BME280;16861;52.294;7.760;2023-01-27T04:22:12;100667.66;;;5.69;77.06
30021;BME280;16861;52.294;7.760;2023-01-27T04:24:39;100672.00;;;5.70;76.78
30021;BME280;16861;52.294;7.760;2023-01-27T04:27:10;100669.38;;;5.70;76.75
30021;BME280;16861;52.294;7.760;2023-01-27T04:29:39;100675.50;;;5.69;76.73
30021;BME280;16861;52.294;7.760;2023-01-27T04:34:51;100665.91;;;5.69;76.75
30021;BME280;16861;52.294;7.760;2023-01-27T04:37:17;100661.59;;;5.67;76.95
30021;BME280;16861;52.294;7.760;2023-01-27T04:39:44;100665.97;;;5.68;77.01
30021;BME280;16861;52.294;7.760;2023-01-27T04:42:11;100678.16;;;5.67;77.08
30021;BME280;16861;52.294;7.760;2023-01-27T04:44:37;100666.81;;;5.67;77.06
30021;BME280;16861;52.294;7.760;2023-01-27T04:47:03;100678.16;;;5.67;76.80
30021;BME280;16861;52.294;7.760;2023-01-27T04:49:30;100666.81;;;5.67;76.81
30021;BME280;16861;52.294;7.760;2023-01-27T04:51:56;100672.06;;;5.67;76.95
30021;BME280;16861;52.294;7.760;2023-01-27T04:54:22;100683.41;;;5.66;76.98
30021;BME280;16861;52.294;7.760;2023-01-27T04:57:00;100679.97;;;5.64;76.48
30021;BME280;16861;52.294;7.760;2023-01-27T04:59:28;100683.44;;;5.64;76.85
30021;BME280;16861;52.294;7.760;2023-01-27T05:01:54;100686.00;;;5.66;76.85
30021;BME280;16861;52.294;7.760;2023-01-27T05:04:21;100686.00;;;5.66;77.03
30021;BME280;16861;52.294;7.760;2023-01-27T05:06:47;100695.53;;;5.68;76.93
30021;BME280;16861;52.294;7.760;2023-01-27T05:09:14;100687.78;;;5.65;76.85
30021;BME280;16861;52.294;7.760;2023-01-27T05:11:40;100691.22;;;5.66;77.18
30021;BME280;16861;52.294;7.760;2023-01-27T05:14:06;100698.16;;;5.67;77.07
30021;BME280;16861;52.294;7.760;2023-01-27T05:16:33;100699.03;;;5.67;77.18
30021;BME280;16861;52.294;7.760;2023-01-27T05:18:59;100697.31;;;5.68;77.25
30021;BME280;16861;52.294;7.760;2023-01-27T05:21:27;100699.91;;;5.68;77.26
30021;BME280;16861;52.294;7.760;2023-01-27T05:23:53;100704.25;;;5.69;77.06
30021;BME280;16861;52.294;7.760;2023-01-27T05:26:24;100704.25;;;5.69;77.09
30021;BME280;16861;52.294;7.760;2023-01-27T05:28:51;100704.25;;;5.69;77.19
30021;BME280;16861;52.294;7.760;2023-01-27T05:31:20;100700.72;;;5.70;76.88
30021;BME280;16861;52.294;7.760;2023-01-27T05:33:50;100706.84;;;5.69;76.76
30021;BME280;16861;52.294;7.760;2023-01-27T05:36:18;100703.38;;;5.68;76.95
30021;BME280;16861;52.294;7.760;2023-01-27T05:38:45;100697.25;;;5.69;77.14
30021;BME280;16861;52.294;7.760;2023-01-27T05:41:13;100708.59;;;5.68;77.17
30021;BME280;16861;52.294;7.760;2023-01-27T05:43:41;100710.38;;;5.68;77.23
30021;BME280;16861;52.294;7.760;2023-01-27T05:46:11;100708.59;;;5.68;77.21
30021;BME280;16861;52.294;7.760;2023-01-27T05:48:44;100713.81;;;5.68;77.09
30021;BME280;16861;52.294;7.760;2023-01-27T05:51:12;100710.31;;;5.69;76.86
30021;BME280;16861;52.294;7.760;2023-01-27T05:53:41;100711.19;;;5.70;77.03
30021;BME280;16861;52.294;7.760;2023-01-27T05:56:09;100717.31;;;5.69;77.22
30021;BME280;16861;52.294;7.760;2023-01-27T05:58:37;100720.72;;;5.71;77.18
30021;BME280;16861;52.294;7.760;2023-01-27T06:01:07;100725.13;;;5.69;76.95
30021;BME280;16861;52.294;7.760;2023-01-27T06:03:34;100733.78;;;5.71;77.00
30021;BME280;16861;52.294;7.760;2023-01-27T06:06:01;100719.00;;;5.70;77.01
30021;BME280;16861;52.294;7.760;2023-01-27T06:08:29;100735.59;;;5.69;77.24
30021;BME280;16861;52.294;7.760;2023-01-27T06:10:57;100735.63;;;5.67;77.28
30021;BME280;16861;52.294;7.760;2023-01-27T06:13:23;100737.31;;;5.70;77.22
30021;BME280;16861;52.294;7.760;2023-01-27T06:15:50;100743.41;;;5.70;77.34
30021;BME280;16861;52.294;7.760;2023-01-27T06:18:18;100738.16;;;5.70;77.24
30021;BME280;16861;52.294;7.760;2023-01-27T06:20:44;100741.63;;;5.71;77.39
30021;BME280;16861;52.294;7.760;2023-01-27T06:23:12;100734.69;;;5.70;77.13
30021;BME280;16861;52.294;7.760;2023-01-27T06:25:44;100734.66;;;5.71;77.29
30021;BME280;16861;52.294;7.760;2023-01-27T06:28:11;100739.84;;;5.73;77.06
30021;BME280;16861;52.294;7.760;2023-01-27T06:30:54;100742.47;;;5.73;76.87
30021;BME280;16861;52.294;7.760;2023-01-27T06:33:21;100745.91;;;5.73;77.17
30021;BME280;16861;52.294;7.760;2023-01-27T06:35:48;100743.41;;;5.70;76.94
30021;BME280;16861;52.294;7.760;2023-01-27T06:38:14;100752.94;;;5.71;77.18
30021;BME280;16861;52.294;7.760;2023-01-27T06:40:41;100745.13;;;5.70;77.25
30021;BME280;16861;52.294;7.760;2023-01-27T06:43:12;100754.72;;;5.69;76.83
30021;BME280;16861;52.294;7.760;2023-01-27T06:45:41;100755.56;;;5.71;77.03
30021;BME280;16861;52.294;7.760;2023-01-27T06:48:07;100754.69;;;5.71;76.93
30021;BME280;16861;52.294;7.760;2023-01-27T06:50:34;100752.09;;;5.69;77.03
30021;BME280;16861;52.294;7.760;2023-01-27T06:53:05;100752.09;;;5.69;76.98
30021;BME280;16861;52.294;7.760;2023-01-27T06:55:32;100751.25;;;5.69;76.99
30021;BME280;16861;52.294;7.760;2023-01-27T06:58:02;100759.94;;;5.69;77.11
30021;BME280;16861;52.294;7.760;2023-01-27T07:00:28;100758.16;;;5.71;77.32
30021;BME280;16861;52.294;7.760;2023-01-27T07:02:56;100769.50;;;5.72;77.08
30021;BME280;16861;52.294;7.760;2023-01-27T07:05:22;100762.50;;;5.72;77.21
30021;BME280;16861;52.294;7.760;2023-01-27T07:07:49;100765.97;;;5.73;77.24
30021;BME280;16861;52.294;7.760;2023-01-27T07:10:16;100759.88;;;5.72;77.09
30021;BME280;16861;52.294;7.760;2023-01-27T07:12:43;100765.09;;;5.74;76.88
30021;BME280;16861;52.294;7.760;2023-01-27T07:15:10;100771.19;;;5.73;77.17
30021;BME280;16861;52.294;7.760;2023-01-27T07:17:36;100776.41;;;5.74;76.99
30021;BME280;16861;52.294;7.760;2023-01-27T07:20:04;100779.84;;;5.75;77.02
30021;BME280;16861;52.294;7.760;2023-01-27T07:22:31;100785.97;;;5.76;77.12
30021;BME280;16861;52.294;7.760;2023-01-27T07:24:58;100784.22;;;5.76;77.34
30021;BME280;16861;52.294;7.760;2023-01-27T07:27:24;100789.38;;;5.78;77.25
30021;BME280;16861;52.294;7.760;2023-01-27T07:29:51;100796.34;;;5.79;77.41
30021;BME280;16861;52.294;7.760;2023-01-27T07:32:18;100798.03;;;5.81;76.87
30021;BME280;16861;52.294;7.760;2023-01-27T07:34:44;100799.78;;;5.81;77.07
30021;BME280;16861;52.294;7.760;2023-01-27T07:37:10;100798.88;;;5.82;76.91
30021;BME280;16861;52.294;7.760;2023-01-27T07:39:37;100805.00;;;5.81;76.93
30021;BME280;16861;52.294;7.760;2023-01-27T07:42:05;100797.19;;;5.79;76.93
30021;BME280;16861;52.294;7.760;2023-01-27T07:44:31;100814.56;;;5.82;76.92
30021;BME280;16861;52.294;7.760;2023-01-27T07:46:58;100809.34;;;5.80;77.06
30021;BME280;16861;52.294;7.760;2023-01-27T07:49:25;100812.84;;;5.81;77.18
30021;BME280;16861;52.294;7.760;2023-01-27T07:51:53;100817.16;;;5.82;76.95
30021;BME280;16861;52.294;7.760;2023-01-27T07:54:19;100827.63;;;5.82;76.93
30021;BME280;16861;52.294;7.760;2023-01-27T07:56:46;100838.06;;;5.82;77.17
30021;BME280;16861;52.294;7.760;2023-01-27T07:59:12;100834.59;;;5.83;76.99
30021;BME280;16861;52.294;7.760;2023-01-27T08:01:38;100833.72;;;5.82;77.16
30021;BME280;16861;52.294;7.760;2023-01-27T08:04:07;100829.38;;;5.83;77.07
30021;BME280;16861;52.294;7.760;2023-01-27T08:06:33;100843.31;;;5.82;76.79
30021;BME280;16861;52.294;7.760;2023-01-27T08:09:00;100841.56;;;5.82;77.02
30021;BME280;16861;52.294;7.760;2023-01-27T08:11:26;100840.69;;;5.82;77.01
30021;BME280;16861;52.294;7.760;2023-01-27T08:13:52;100846.78;;;5.82;77.06
30021;BME280;16861;52.294;7.760;2023-01-27T08:16:19;100848.50;;;5.83;77.15
30021;BME280;16861;52.294;7.760;2023-01-27T08:18:45;100838.91;;;5.84;77.21
30021;BME280;16861;52.294;7.760;2023-01-27T08:21:12;100847.59;;;5.84;77.07
30021;BME280;16861;52.294;7.760;2023-01-27T08:23:38;100844.97;;;5.86;77.03
30021;BME280;16861;52.294;7.760;2023-01-27T08:26:06;100852.78;;;5.87;77.19
30021;BME280;16861;52.294;7.760;2023-01-27T08:28:35;100848.44;;;5.86;76.84
30021;BME280;16861;52.294;7.760;2023-01-27T08:31:14;100851.09;;;5.85;76.13
30021;BME280;16861;52.294;7.760;2023-01-27T08:33:42;100852.78;;;5.87;77.17
30021;BME280;16861;52.294;7.760;2023-01-27T08:36:14;100864.09;;;5.88;76.61
30021;BME280;16861;52.294;7.760;2023-01-27T08:38:43;100855.38;;;5.89;76.91
30021;BME280;16861;52.294;7.760;2023-01-27T08:41:12;100860.56;;;5.91;76.68
30021;BME280;16861;52.294;7.760;2023-01-27T08:43:39;100857.06;;;5.90;76.64
30021;BME280;16861;52.294;7.760;2023-01-27T08:46:06;100866.69;;;5.90;76.66
30021;BME280;16861;52.294;7.760;2023-01-27T08:48:33;100868.41;;;5.91;76.41
30021;BME280;16861;52.294;7.760;2023-01-27T08:51:00;100860.59;;;5.89;76.26
30021;BME280;16861;52.294;7.760;2023-01-27T08:53:27;100871.91;;;5.90;76.41
30021;BME280;16861;52.294;7.760;2023-01-27T08:55:58;100871.94;;;5.88;75.98
30021;BME280;16861;52.294;7.760;2023-01-27T08:58:27;100867.63;;;5.87;76.56
30021;BME280;16861;52.294;7.760;2023-01-27T09:00:53;100878.00;;;5.89;76.71
30021;BME280;16861;52.294;7.760;2023-01-27T09:03:20;100867.56;;;5.89;76.38
30021;BME280;16861;52.294;7.760;2023-01-27T09:05:46;100886.72;;;5.89;76.62
30021;BME280;16861;52.294;7.760;2023-01-27T09:08:16;100882.38;;;5.90;76.43
30021;BME280;16861;52.294;7.760;2023-01-27T09:10:44;100887.53;;;5.91;76.67
30021;BME280;16861;52.294;7.760;2023-01-27T09:13:11;100886.66;;;5.92;76.69
30021;BME280;16861;52.294;7.760;2023-01-27T09:15:37;100894.50;;;5.94;76.78
30021;BME280;16861;52.294;7.760;2023-01-27T09:18:05;100884.88;;;5.94;76.68
30021;BME280;16861;52.294;7.760;2023-01-27T09:20:32;100888.38;;;5.95;76.40
30021;BME280;16861;52.294;7.760;2023-01-27T09:22:59;100886.59;;;5.95;76.67
30021;BME280;16861;52.294;7.760;2023-01-27T09:25:26;100889.19;;;5.97;76.79
30021;BME280;16861;52.294;7.760;2023-01-27T09:27:54;100897.00;;;5.98;76.29
30021;BME280;16861;52.294;7.760;2023-01-27T09:30:22;100899.59;;;6.00;76.65
30021;BME280;16861;52.294;7.760;2023-01-27T09:32:49;100896.06;;;6.01;76.60
30021;BME280;16861;52.294;7.760;2023-01-27T09:35:16;100894.34;;;6.02;76.52
30021;BME280;16861;52.294;7.760;2023-01-27T09:37:54;100899.59;;;6.00;74.96
30021;BME280;16861;52.294;7.760;2023-01-27T09:40:33;100910.03;;;6.03;75.51
30021;BME280;16861;52.294;7.760;2023-01-27T09:46:16;100910.78;;;6.08;76.19
30021;BME280;16861;52.294;7.760;2023-01-27T09:48:52;100908.97;;;6.12;76.71
30021;BME280;16861;52.294;7.760;2023-01-27T09:57:50;100915.84;;;6.16;75.48
30021;BME280;16861;52.294;7.760;2023-01-27T10:08:51;100909.59;;;6.25;75.58
30021;BME280;16861;52.294;7.760;2023-01-27T10:17:15;100913.88;;;6.29;75.37
30021;BME280;16861;52.294;7.760;2023-01-27T10:22:47;100926.81;;;6.35;76.25
30021;BME280;16861;52.294;7.760;2023-01-27T10:25:47;100912.03;;;6.33;74.66
30021;BME280;16861;52.294;7.760;2023-01-27T10:28:21;100904.13;;;6.36;75.65
30021;BME280;16861;52.294;7.760;2023-01-27T10:31:00;100918.06;;;6.36;75.39
30021;BME280;16861;52.294;7.760;2023-01-27T10:36:25;100916.22;;;6.42;75.14
30021;BME280;16861;52.294;7.760;2023-01-27T10:39:05;100908.22;;;6.49;76.97
30021;BME280;16861;52.294;7.760;2023-01-27T10:41:57;100905.47;;;6.54;75.96
30021;BME280;16861;52.294;7.760;2023-01-27T10:47:31;100905.34;;;6.62;75.24
30021;BME280;16861;52.294;7.760;2023-01-27T10:50:03;100909.63;;;6.66;75.56
30021;BME280;16861;52.294;7.760;2023-01-27T10:52:48;100908.78;;;6.64;74.62
30021;BME280;16861;52.294;7.760;2023-01-27T10:55:40;100911.31;;;6.67;74.51
30021;BME280;16861;52.294;7.760;2023-01-27T11:00:52;100901.63;;;6.71;74.92
30021;BME280;16861;52.294;7.760;2023-01-27T11:03:43;100907.78;;;6.70;75.30
30021;BME280;16861;52.294;7.760;2023-01-27T11:06:14;100905.16;;;6.70;75.63
30021;BME280;16861;52.294;7.760;2023-01-27T11:08:45;100907.81;;;6.68;74.72
30021;BME280;16861;52.294;7.760;2023-01-27T11:11:14;100907.84;;;6.67;74.74
30021;BME280;16861;52.294;7.760;2023-01-27T11:14:15;100895.69;;;6.64;73.36
30021;BME280;16861;52.294;7.760;2023-01-27T11:16:51;100896.63;;;6.61;73.23
30021;BME280;16861;52.294;7.760;2023-01-27T11:19:39;100900.16;;;6.59;73.13
30021;BME280;16861;52.294;7.760;2023-01-27T11:22:18;100891.44;;;6.58;73.33
30021;BME280;16861;52.294;7.760;2023-01-27T11:24:54;100900.19;;;6.57;73.69
30021;BME280;16861;52.294;7.760;2023-01-27T11:30:25;100898.53;;;6.53;73.69
30021;BME280;16861;52.294;7.760;2023-01-27T11:35:25;100904.56;;;6.57;74.92
30021;BME280;16861;52.294;7.760;2023-01-27T11:37:51;100911.56;;;6.56;74.94
30021;BME280;16861;52.294;7.760;2023-01-27T11:40:31;100896.72;;;6.57;74.79
30021;BME280;16861;52.294;7.760;2023-01-27T11:42:58;100901.91;;;6.58;74.78
30021;BME280;16861;52.294;7.760;2023-01-27T11:45:26;100896.69;;;6.58;74.91
30021;BME280;16861;52.294;7.760;2023-01-27T11:47:59;100900.19;;;6.57;73.84
30021;BME280;16861;52.294;7.760;2023-01-27T11:50:33;100892.28;;;6.60;74.18
30021;BME280;16861;52.294;7.760;2023-01-27T11:55:54;100886.09;;;6.64;73.61
30021;BME280;16861;52.294;7.760;2023-01-27T11:58:30;100880.78;;;6.68;73.57
30021;BME280;16861;52.294;7.760;2023-01-27T12:01:03;100879.00;;;6.70;74.45
30021;BME280;16861;52.294;7.760;2023-01-27T12:04:05;100883.38;;;6.68;73.26
30021;BME280;16861;52.294;7.760;2023-01-27T12:06:41;100884.19;;;6.71;73.68
30021;BME280;16861;52.294;7.760;2023-01-27T12:09:32;100883.34;;;6.69;73.29
30021;BME280;16861;52.294;7.760;2023-01-27T12:14:37;100878.03;;;6.74;74.82
30021;BME280;16861;52.294;7.760;2023-01-27T12:17:05;100876.31;;;6.73;74.38
30021;BME280;16861;52.294;7.760;2023-01-27T12:19:39;100882.41;;;6.72;73.66
30021;BME280;16861;52.294;7.760;2023-01-27T12:22:10;100877.16;;;6.73;73.29
30021;BME280;16861;52.294;7.760;2023-01-27T12:24:45;100876.28;;;6.74;73.64
30021;BME280;16861;52.294;7.760;2023-01-27T12:27:18;100882.38;;;6.75;73.08
30021;BME280;16861;52.294;7.760;2023-01-27T12:29:51;100884.13;;;6.74;73.74
30021;BME280;16861;52.294;7.760;2023-01-27T12:34:58;100883.31;;;6.71;74.30
30021;BME280;16861;52.294;7.760;2023-01-27T12:37:32;100875.63;;;6.64;73.04
30021;BME280;16861;52.294;7.760;2023-01-27T12:40:02;100874.75;;;6.64;73.68
30021;BME280;16861;52.294;7.760;2023-01-27T12:45:27;100860.84;;;6.63;72.69
30021;BME280;16861;52.294;7.760;2023-01-27T12:50:39;100854.59;;;6.68;73.60
30021;BME280;16861;52.294;7.760;2023-01-27T12:53:23;100859.00;;;6.67;72.58
30021;BME280;16861;52.294;7.760;2023-01-27T12:56:12;100862.41;;;6.69;72.67
30021;BME280;16861;52.294;7.760;2023-01-27T12:58:44;100862.41;;;6.71;73.62
30021;BME280;16861;52.294;7.760;2023-01-27T13:03:53;100858.03;;;6.71;72.08
30021;BME280;16861;52.294;7.760;2023-01-27T13:06:28;100860.66;;;6.71;72.81
30021;BME280;16861;52.294;7.760;2023-01-27T13:08:56;100868.47;;;6.73;73.81
30021;BME280;16861;52.294;7.760;2023-01-27T13:11:32;100867.63;;;6.71;72.80
30021;BME280;16861;52.294;7.760;2023-01-27T13:13:59;100864.97;;;6.72;74.00
30021;BME280;16861;52.294;7.760;2023-01-27T13:16:28;100863.25;;;6.71;73.87
30021;BME280;16861;52.294;7.760;2023-01-27T13:18:58;100870.28;;;6.69;73.45
30021;BME280;16861;52.294;7.760;2023-01-27T13:21:32;100872.97;;;6.66;72.75
30021;BME280;16861;52.294;7.760;2023-01-27T13:24:09;100875.63;;;6.64;73.03
30021;BME280;16861;52.294;7.760;2023-01-27T13:26:39;100879.16;;;6.63;73.76
30021;BME280;16861;52.294;7.760;2023-01-27T13:34:37;100874.09;;;6.54;71.79
30021;BME280;16861;52.294;7.760;2023-01-27T13:37:14;100880.19;;;6.55;72.45
30021;BME280;16861;52.294;7.760;2023-01-27T13:45:08;100882.84;;;6.53;73.41
30021;BME280;16861;52.294;7.760;2023-01-27T13:47:57;100883.78;;;6.50;72.32
30021;BME280;16861;52.294;7.760;2023-01-27T13:50:33;100884.66;;;6.51;72.32
30021;BME280;16861;52.294;7.760;2023-01-27T13:53:02;100879.38;;;6.53;73.33
30021;BME280;16861;52.294;7.760;2023-01-27T14:08:58;100887.50;;;6.40;71.83
30021;BME280;16861;52.294;7.760;2023-01-27T14:11:44;100893.59;;;6.39;71.20
30021;BME280;16861;52.294;7.760;2023-01-27T14:20:21;100905.00;;;6.35;71.78
30021;BME280;16861;52.294;7.760;2023-01-27T14:23:04;100905.00;;;6.35;71.76
30021;BME280;16861;52.294;7.760;2023-01-27T14:28:25;100903.31;;;6.32;72.19
30021;BME280;16861;52.294;7.760;2023-01-27T14:31:02;100893.75;;;6.31;72.64
30021;BME280;16861;52.294;7.760;2023-01-27T14:36:37;100901.56;;;6.34;73.10
30021;BME280;16861;52.294;7.760;2023-01-27T14:39:20;100893.72;;;6.33;72.22
30021;BME280;16861;52.294;7.760;2023-01-27T14:42:22;100899.78;;;6.35;72.00
30021;BME280;16861;52.294;7.760;2023-01-27T14:45:17;100897.13;;;6.36;72.03
30021;BME280;16861;52.294;7.760;2023-01-27T14:47:55;100905.81;;;6.38;72.36
30021;BME280;16861;52.294;7.760;2023-01-27T15:01:40;100919.91;;;6.31;71.60
30021;BME280;16861;52.294;7.760;2023-01-27T15:04:29;100916.41;;;6.32;72.03
30021;BME280;16861;52.294;7.760;2023-01-27T15:10:16;100926.94;;;6.29;71.52
30021;BME280;16861;52.294;7.760;2023-01-27T15:13:08;100923.41;;;6.32;73.52
30021;BME280;16861;52.294;7.760;2023-01-27T15:24:25;100931.44;;;6.22;72.86